Time;durP1;ratioP1;P1;durP2;ratioP2;P2;SDS_P1;SDS_P2;PMS_P1;PMS_P2;Temp;Humidity;BMP_temperature;BMP_pressure;BME280_temperature;BME280_humidity;BME280_pressure;Samples;Min_cycle;Max_cycle;Signal;HPM_P1;HPM_P2
2021/01/24 00:01:01;;;;;;;5.85;5.30;;;8.40;99.90;;;;;;4984243;28;20201;-54
2021/01/24 00:03:32;;;;;;;6.50;5.78;;;8.30;99.90;;;;;;4994250;28;20231;-53
2021/01/24 00:06:03;;;;;;;5.82;5.32;;;8.30;99.90;;;;;;4983606;28;20220;-52
2021/01/24 00:08:33;;;;;;;6.10;5.60;;;8.30;99.90;;;;;;4983898;28;20197;-49
2021/01/24 00:13:51;;;;;;;7.15;5.13;;;8.10;99.90;;;;;;4980075;28;21094;-49
2021/01/24 00:16:22;;;;;;;6.13;5.38;;;7.90;99.90;;;;;;4984033;28;20697;-47
2021/01/24 00:18:52;;;;;;;5.10;4.60;;;7.80;99.90;;;;;;4983475;28;20291;-49
2021/01/24 00:21:22;;;;;;;6.47;5.45;;;7.60;99.90;;;;;;4983615;28;20618;-51
2021/01/24 00:23:52;;;;;;;7.13;6.10;;;7.60;99.90;;;;;;4988379;28;20220;-53
2021/01/24 00:26:22;;;;;;;6.22;5.63;;;7.50;99.90;;;;;;4987298;28;20213;-50
2021/01/24 00:28:52;;;;;;;6.50;6.00;;;7.40;99.90;;;;;;4983617;28;20275;-53
2021/01/24 00:31:23;;;;;;;7.38;6.68;;;7.30;99.90;;;;;;4994000;28;20208;-51
2021/01/24 00:33:54;;;;;;;6.25;5.57;;;7.20;99.90;;;;;;4981042;28;20319;-49
2021/01/24 00:36:24;;;;;;;6.28;5.40;;;7.30;99.90;;;;;;4984556;28;20196;-50
2021/01/24 00:38:54;;;;;;;5.95;5.35;;;7.30;99.90;;;;;;4982725;28;20204;-50
2021/01/24 00:41:24;;;;;;;7.53;6.70;;;7.30;99.90;;;;;;4980390;28;20323;-50
2021/01/24 00:43:54;;;;;;;6.38;5.75;;;7.10;99.90;;;;;;4984513;28;20212;-49
2021/01/24 00:46:25;;;;;;;6.35;5.55;;;7.00;99.90;;;;;;4988030;28;20644;-50
2021/01/24 00:48:55;;;;;;;7.18;5.63;;;7.00;99.90;;;;;;4983923;28;21046;-51
2021/01/24 00:51:25;;;;;;;5.97;5.22;;;7.00;99.90;;;;;;4986549;28;20302;-49
2021/01/24 00:53:55;;;;;;;6.78;6.18;;;7.00;99.90;;;;;;4981744;28;20204;-49
2021/01/24 00:56:25;;;;;;;7.00;6.30;;;7.00;99.90;;;;;;4989842;28;20226;-50
2021/01/24 00:58:55;;;;;;;6.72;5.70;;;6.80;99.90;;;;;;4980218;28;20204;-51
2021/01/24 01:01:27;;;;;;;6.40;5.80;;;6.60;99.90;;;;;;4985961;28;20189;-52
2021/01/24 01:03:57;;;;;;;8.02;6.00;;;6.50;99.90;;;;;;4988199;28;20225;-52
2021/01/24 01:06:27;;;;;;;8.60;5.57;;;6.40;99.90;;;;;;4984554;28;20235;-49
2021/01/24 01:08:57;;;;;;;9.77;8.73;;;6.40;99.90;;;;;;4986426;28;20266;-49
2021/01/24 01:11:28;;;;;;;14.45;12.35;;;6.40;99.90;;;;;;4985278;28;20224;-53
2021/01/24 01:13:58;;;;;;;12.07;8.90;;;6.40;99.90;;;;;;4983066;28;20204;-49
2021/01/24 01:16:29;;;;;;;7.45;6.63;;;6.40;99.90;;;;;;4986603;28;20197;-52
2021/01/24 01:19:00;;;;;;;8.75;7.20;;;6.30;99.90;;;;;;4985355;28;20189;-52
2021/01/24 01:21:30;;;;;;;7.47;6.57;;;6.20;99.90;;;;;;4985711;28;20209;-48
2021/01/24 01:24:00;;;;;;;8.75;6.95;;;6.10;99.90;;;;;;4987620;28;20224;-50
2021/01/24 01:26:30;;;;;;;7.82;6.70;;;5.90;99.90;;;;;;4980900;28;20230;-47
2021/01/24 01:29:00;;;;;;;9.00;7.10;;;5.80;99.90;;;;;;4983726;28;20216;-51
2021/01/24 01:31:32;;;;;;;8.30;7.50;;;5.80;99.90;;;;;;4985870;28;20235;-50
2021/01/24 01:34:02;;;;;;;9.55;8.60;;;5.80;99.90;;;;;;4990895;28;20198;-47
2021/01/24 01:36:33;;;;;;;9.85;8.90;;;5.70;99.90;;;;;;4982696;28;20240;-50
2021/01/24 01:39:03;;;;;;;14.10;11.65;;;5.70;99.90;;;;;;4979166;28;20260;-51
2021/01/24 01:41:35;;;;;;;10.27;9.32;;;5.70;99.90;;;;;;4970633;28;20202;-51
2021/01/24 01:44:05;;;;;;;10.60;9.52;;;5.60;99.90;;;;;;4974877;28;20264;-49
2021/01/24 01:46:37;;;;;;;10.02;9.02;;;5.60;99.90;;;;;;4979730;28;20244;-51
2021/01/24 01:49:08;;;;;;;10.07;9.07;;;5.60;99.90;;;;;;4982573;28;20223;-51
2021/01/24 01:51:38;;;;;;;10.50;9.50;;;5.50;99.90;;;;;;4985005;28;20302;-51
2021/01/24 01:54:08;;;;;;;10.70;9.70;;;5.50;99.90;;;;;;4967019;28;20363;-52
2021/01/24 01:56:38;;;;;;;10.50;9.40;;;5.60;99.90;;;;;;4971921;28;20268;-49
2021/01/24 01:59:08;;;;;;;11.57;10.48;;;5.70;99.90;;;;;;4985602;28;20189;-47
2021/01/24 02:02:06;;;;;;;11.70;10.50;;;5.70;99.90;;;;;;4974580;28;20189;-50
2021/01/24 02:04:43;;;;;;;10.75;9.73;;;5.80;99.90;;;;;;4966670;28;20248;-52
2021/01/24 02:07:17;;;;;;;12.10;10.90;;;5.80;99.90;;;;;;4981738;28;20231;-53
2021/01/24 02:09:52;;;;;;;12.98;11.23;;;5.90;99.90;;;;;;4977540;28;20242;-47
2021/01/24 02:12:34;;;;;;;12.70;11.60;;;5.90;99.90;;;;;;4906323;28;2085000;-50
2021/01/24 02:15:06;;;;;;;15.20;12.98;;;6.00;99.90;;;;;;4986073;28;20204;-48
2021/01/24 02:17:39;;;;;;;35.53;25.27;;;6.10;99.90;;;;;;4985643;28;20209;-52
2021/01/24 02:20:15;;;;;;;41.30;25.88;;;6.10;99.90;;;;;;4986354;28;20216;-46
2021/01/24 02:22:48;;;;;;;34.35;23.02;;;6.20;99.90;;;;;;4977396;28;20213;-49
2021/01/24 02:25:23;;;;;;;27.95;20.45;;;6.20;99.90;;;;;;4978252;28;20536;-51
2021/01/24 02:28:00;;;;;;;22.20;17.92;;;6.20;99.90;;;;;;4984057;28;20204;-48
2021/01/24 02:30:35;;;;;;;20.27;18.27;;;6.30;99.90;;;;;;4987006;28;20236;-48
2021/01/24 02:33:08;;;;;;;24.20;20.75;;;6.30;99.90;;;;;;4976333;28;20240;-48
2021/01/24 02:35:41;;;;;;;21.90;19.80;;;6.40;99.90;;;;;;4966308;28;20201;-51
2021/01/24 02:38:13;;;;;;;23.02;20.75;;;6.40;99.90;;;;;;4986685;28;20204;-50
2021/01/24 02:40:43;;;;;;;21.73;19.48;;;6.40;99.90;;;;;;4985250;28;20205;-50
2021/01/24 02:43:15;;;;;;;23.35;20.88;;;6.40;99.90;;;;;;4978988;28;20225;-48
2021/01/24 02:45:49;;;;;;;22.90;20.75;;;6.40;99.90;;;;;;4986598;28;20310;-52
2021/01/24 02:48:20;;;;;;;22.02;19.90;;;6.50;99.90;;;;;;4971054;28;20209;-52
2021/01/24 02:50:50;;;;;;;22.90;20.45;;;6.50;99.90;;;;;;4985666;28;20244;-50
2021/01/24 02:53:22;;;;;;;23.75;21.50;;;6.50;99.90;;;;;;4983988;28;20188;-51
2021/01/24 02:55:52;;;;;;;27.02;23.63;;;6.50;99.90;;;;;;4986684;28;20217;-47
2021/01/24 02:58:23;;;;;;;24.65;21.90;;;6.40;99.90;;;;;;4966891;28;20304;-49
2021/01/24 03:00:54;;;;;;;25.40;22.67;;;6.40;99.90;;;;;;4973193;28;20263;-50
2021/01/24 03:03:24;;;;;;;26.42;23.75;;;6.40;99.90;;;;;;4988967;28;20212;-52
2021/01/24 03:05:54;;;;;;;27.42;24.52;;;6.50;99.90;;;;;;4978629;28;20269;-47
2021/01/24 03:08:24;;;;;;;23.10;20.70;;;6.50;99.90;;;;;;4966530;28;20640;-51
2021/01/24 03:10:56;;;;;;;21.65;19.55;;;6.60;99.90;;;;;;4970506;28;20263;-48
2021/01/24 03:13:32;;;;;;;21.13;19.05;;;6.70;99.90;;;;;;4973906;28;20201;-47
2021/01/24 03:16:04;;;;;;;24.60;22.02;;;6.80;99.90;;;;;;4975599;28;20211;-52
2021/01/24 03:18:37;;;;;;;25.35;22.80;;;6.80;99.90;;;;;;4981481;28;20205;-48
2021/01/24 03:21:09;;;;;;;23.90;21.50;;;6.80;99.90;;;;;;4977080;28;20228;-47
2021/01/24 03:23:40;;;;;;;24.38;22.00;;;6.80;99.90;;;;;;4972205;28;20260;-47
2021/01/24 03:26:11;;;;;;;24.00;21.70;;;6.80;99.90;;;;;;4983057;28;20228;-46
2021/01/24 03:28:41;;;;;;;26.40;23.70;;;6.70;99.90;;;;;;4967241;28;20204;-48
2021/01/24 03:31:12;;;;;;;26.40;23.85;;;6.70;99.90;;;;;;4980667;28;20200;-49
2021/01/24 03:33:43;;;;;;;28.13;23.58;;;6.70;99.90;;;;;;4970028;28;20205;-47
2021/01/24 03:36:13;;;;;;;25.75;23.13;;;6.70;99.90;;;;;;4973752;28;20201;-49
2021/01/24 03:38:43;;;;;;;24.98;22.27;;;6.70;99.90;;;;;;4981847;28;20641;-49
2021/01/24 03:41:13;;;;;;;26.63;23.73;;;6.80;99.90;;;;;;4983946;28;20219;-52
2021/01/24 03:43:43;;;;;;;30.60;25.92;;;6.80;99.90;;;;;;4984810;28;20201;-50
2021/01/24 03:46:14;;;;;;;26.83;24.05;;;6.80;99.90;;;;;;4979310;28;20226;-51
2021/01/24 03:48:45;;;;;;;26.02;23.42;;;6.80;99.90;;;;;;4982899;28;20261;-50
2021/01/24 03:51:15;;;;;;;26.35;23.52;;;6.80;99.90;;;;;;4981221;28;20200;-47
2021/01/24 03:53:45;;;;;;;27.42;24.65;;;6.90;99.90;;;;;;4975340;28;20284;-51
2021/01/24 03:56:15;;;;;;;28.35;25.45;;;6.90;99.90;;;;;;4986372;28;20252;-50
2021/01/24 03:58:45;;;;;;;30.17;27.23;;;7.00;99.90;;;;;;4971300;28;20256;-49
2021/01/24 04:01:16;;;;;;;30.13;26.92;;;6.80;99.90;;;;;;4965446;28;20201;-49
2021/01/24 04:03:46;;;;;;;29.27;26.27;;;6.80;99.90;;;;;;4980933;28;20193;-51
2021/01/24 04:06:16;;;;;;;32.17;28.67;;;6.90;99.90;;;;;;4996217;28;20296;-51
2021/01/24 04:08:46;;;;;;;30.92;27.55;;;7.00;99.90;;;;;;4975063;28;20263;-48
2021/01/24 04:11:16;;;;;;;30.40;27.10;;;7.00;99.90;;;;;;4968742;28;20265;-52
2021/01/24 04:13:47;;;;;;;30.48;27.27;;;7.00;99.90;;;;;;4967016;28;20213;-52
2021/01/24 04:16:19;;;;;;;32.55;29.35;;;7.10;99.90;;;;;;4968236;28;20205;-52
2021/01/24 04:18:49;;;;;;;30.75;27.85;;;7.00;99.90;;;;;;4983912;28;20196;-52
2021/01/24 04:21:19;;;;;;;31.35;28.02;;;7.00;99.90;;;;;;4985197;28;20200;-51
2021/01/24 04:23:49;;;;;;;33.00;29.70;;;7.00;99.90;;;;;;4984440;28;20212;-53
2021/01/24 04:26:19;;;;;;;32.65;29.40;;;7.00;99.90;;;;;;4983096;28;20552;-53
2021/01/24 04:28:49;;;;;;;32.13;28.92;;;7.00;99.90;;;;;;4992641;28;20313;-53
2021/01/24 04:31:20;;;;;;;33.28;29.92;;;6.90;99.90;;;;;;4973710;28;20225;-53
2021/01/24 04:33:50;;;;;;;33.05;29.70;;;6.90;99.90;;;;;;4982733;28;20642;-46
2021/01/24 04:36:20;;;;;;;31.00;27.65;;;6.90;99.90;;;;;;4981908;28;20284;-51
2021/01/24 04:38:50;;;;;;;29.85;26.73;;;6.80;99.90;;;;;;4995632;28;20197;-51
2021/01/24 04:41:21;;;;;;;30.33;27.33;;;6.70;99.90;;;;;;4982606;28;20268;-51
2021/01/24 04:43:51;;;;;;;28.80;25.77;;;6.70;99.90;;;;;;4993864;28;20649;-50
2021/01/24 04:46:23;;;;;;;28.73;24.20;;;6.80;99.90;;;;;;4987783;28;20255;-49
2021/01/24 04:48:53;;;;;;;27.33;24.45;;;6.80;99.90;;;;;;4986009;28;20196;-48
2021/01/24 04:51:23;;;;;;;27.20;24.38;;;6.80;99.90;;;;;;4988806;28;20201;-50
2021/01/24 04:53:53;;;;;;;26.58;23.88;;;6.70;99.90;;;;;;4979672;28;20204;-52
2021/01/24 04:56:24;;;;;;;26.45;23.90;;;6.70;99.90;;;;;;4981349;28;20200;-48
2021/01/24 04:58:55;;;;;;;25.77;23.15;;;6.60;99.90;;;;;;4973069;28;20248;-51
2021/01/24 05:01:28;;;;;;;25.23;22.73;;;6.70;99.90;;;;;;4976733;28;20195;-47
2021/01/24 05:04:00;;;;;;;23.95;21.63;;;6.70;99.90;;;;;;4980807;28;20232;-50
2021/01/24 05:06:30;;;;;;;22.10;19.83;;;6.80;99.90;;;;;;4983753;28;20212;-48
2021/01/24 05:09:01;;;;;;;23.58;21.10;;;6.80;99.90;;;;;;4981284;28;20208;-52
2021/01/24 05:11:32;;;;;;;22.80;20.45;;;7.00;99.90;;;;;;4975420;28;20291;-46
2021/01/24 05:14:24;;;;;;;25.15;22.55;;;7.00;99.90;;;;;;4982999;28;20227;-48
2021/01/24 05:16:56;;;;;;;21.55;19.35;;;6.90;99.90;;;;;;4983962;28;20600;-49
2021/01/24 05:19:28;;;;;;;21.50;19.30;;;6.90;99.90;;;;;;4988676;28;20196;-47
2021/01/24 05:21:59;;;;;;;21.33;19.33;;;6.90;99.90;;;;;;4984475;28;20200;-48
2021/01/24 05:24:31;;;;;;;21.33;19.13;;;7.00;99.90;;;;;;4984746;28;20220;-48
2021/01/24 05:27:09;;;;;;;23.83;21.42;;;6.80;99.90;;;;;;4984255;28;20554;-48
2021/01/24 05:29:41;;;;;;;22.90;20.40;;;6.80;99.90;;;;;;4987616;28;20266;-46
2021/01/24 05:32:13;;;;;;;20.30;18.38;;;6.80;99.90;;;;;;4986943;28;20192;-51
2021/01/24 05:34:49;;;;;;;20.55;18.63;;;6.80;99.90;;;;;;4981170;28;20654;-48
2021/01/24 05:37:19;;;;;;;25.08;20.77;;;6.80;99.90;;;;;;4982425;28;20200;-47
2021/01/24 05:39:49;;;;;;;20.10;18.08;;;6.70;99.90;;;;;;4983699;28;20252;-49
2021/01/24 05:42:19;;;;;;;22.05;19.80;;;6.80;99.90;;;;;;4982794;28;20266;-52
2021/01/24 05:44:49;;;;;;;23.45;21.05;;;6.70;99.90;;;;;;4978563;28;20225;-48
2021/01/24 05:47:21;;;;;;;23.02;20.67;;;6.70;99.90;;;;;;4975140;28;20217;-47
2021/01/24 05:49:51;;;;;;;25.17;22.50;;;6.80;99.90;;;;;;4986597;28;20309;-47
2021/01/24 05:52:21;;;;;;;26.17;23.52;;;6.80;99.90;;;;;;4994301;28;20272;-49
2021/01/24 05:54:51;;;;;;;25.48;22.88;;;6.80;99.90;;;;;;4984661;28;20216;-51
2021/01/24 05:57:25;;;;;;;27.00;24.10;;;6.80;99.90;;;;;;4983023;28;20284;-51
2021/01/24 05:59:57;;;;;;;27.42;24.63;;;6.70;99.90;;;;;;4984669;28;20205;-51
2021/01/24 06:02:28;;;;;;;27.85;23.52;;;6.80;99.90;;;;;;4986033;28;20196;-51
2021/01/24 06:04:59;;;;;;;25.42;22.92;;;6.90;99.90;;;;;;4987092;28;20308;-52
2021/01/24 06:07:29;;;;;;;26.45;23.85;;;7.00;99.90;;;;;;4984889;28;20205;-51
2021/01/24 06:09:59;;;;;;;26.63;23.42;;;7.00;99.90;;;;;;4987892;28;20204;-49
2021/01/24 06:12:31;;;;;;;26.13;23.42;;;6.90;99.90;;;;;;4984845;28;20239;-51
2021/01/24 06:15:03;;;;;;;26.85;24.17;;;6.90;99.90;;;;;;4989850;28;20853;-50
2021/01/24 06:17:39;;;;;;;27.33;24.52;;;7.00;99.90;;;;;;4987779;28;20196;-49
2021/01/24 06:20:12;;;;;;;27.55;24.17;;;6.90;99.90;;;;;;4986712;28;20241;-50
2021/01/24 06:22:46;;;;;;;26.67;23.88;;;6.70;99.90;;;;;;4986346;28;20264;-53
2021/01/24 06:25:22;;;;;;;26.67;23.85;;;6.60;99.90;;;;;;4987433;28;20247;-52
2021/01/24 06:27:56;;;;;;;27.65;25.00;;;6.60;99.90;;;;;;4984175;28;20354;-51
2021/01/24 06:30:29;;;;;;;31.92;24.65;;;6.70;99.90;;;;;;4979341;28;20204;-53
2021/01/24 06:33:13;;;;;;;26.67;23.95;;;6.70;99.90;;;;;;4985438;28;20271;-47
2021/01/24 06:35:48;;;;;;;25.23;22.73;;;6.60;99.90;;;;;;4986591;28;20252;-52
2021/01/24 06:38:32;;;;;;;25.77;23.23;;;6.70;99.90;;;;;;4981995;28;20212;-53
2021/01/24 06:41:05;;;;;;;27.15;24.30;;;6.60;99.90;;;;;;4996106;28;20215;-46
2021/01/24 06:43:41;;;;;;;27.55;24.80;;;6.50;99.90;;;;;;4988330;28;20232;-52
2021/01/24 06:46:43;;;;;;;27.20;24.25;;;6.60;99.90;;;;;;4983706;28;20552;-52
2021/01/24 06:49:41;;;;;;;29.63;24.77;;;6.60;99.90;;;;;;4988969;28;20579;-47
2021/01/24 06:52:19;;;;;;;28.45;25.77;;;6.50;99.90;;;;;;4998550;28;20205;-51
2021/01/24 06:54:50;;;;;;;27.70;24.95;;;6.50;99.90;;;;;;4985967;28;20212;-48
2021/01/24 06:57:20;;;;;;;28.17;25.38;;;6.50;99.90;;;;;;4998588;28;20215;-48
2021/01/24 06:59:50;;;;;;;28.48;25.52;;;6.60;99.90;;;;;;4983755;28;20208;-50
2021/01/24 07:02:26;;;;;;;28.05;25.20;;;6.60;99.90;;;;;;4986253;28;20204;-45
2021/01/24 07:05:18;;;;;;;26.90;24.20;;;6.50;99.90;;;;;;4977372;28;20315;-47
2021/01/24 07:07:49;;;;;;;27.90;25.13;;;6.50;99.90;;;;;;4982190;28;20350;-48
2021/01/24 07:10:44;;;;;;;26.67;24.05;;;6.50;99.90;;;;;;4970052;28;20243;-48
2021/01/24 07:13:35;;;;;;;29.27;26.08;;;6.60;99.90;;;;;;4991558;28;20263;-49
2021/01/24 07:16:07;;;;;;;32.08;28.65;;;6.80;99.90;;;;;;4982457;28;20212;-45
2021/01/24 07:18:42;;;;;;;30.95;27.58;;;6.80;99.90;;;;;;4983424;28;20279;-46
2021/01/24 07:21:14;;;;;;;30.63;27.33;;;6.70;99.90;;;;;;4974968;28;20204;-49
2021/01/24 07:23:44;;;;;;;28.45;25.00;;;6.60;99.90;;;;;;4981818;28;20236;-46
2021/01/24 07:26:14;;;;;;;28.48;24.45;;;6.60;99.90;;;;;;4978203;28;20251;-46
2021/01/24 07:28:45;;;;;;;27.70;24.88;;;6.50;99.90;;;;;;4986144;28;20227;-45
2021/01/24 07:31:15;;;;;;;28.50;25.67;;;6.50;99.90;;;;;;4987807;28;20201;-47
2021/01/24 07:33:46;;;;;;;27.90;25.05;;;6.50;99.90;;;;;;4985020;28;20300;-47
2021/01/24 07:36:18;;;;;;;28.17;25.27;;;6.50;99.90;;;;;;4969933;28;20208;-47
2021/01/24 07:38:48;;;;;;;24.83;22.33;;;6.50;99.90;;;;;;4985606;28;20208;-47
2021/01/24 07:41:20;;;;;;;25.30;22.60;;;6.40;99.90;;;;;;4981646;28;20216;-48
2021/01/24 07:43:50;;;;;;;25.27;22.80;;;6.40;99.90;;;;;;4989655;28;20270;-49
2021/01/24 07:46:22;;;;;;;25.85;23.40;;;6.30;99.90;;;;;;4983799;28;20232;-47
2021/01/24 07:48:52;;;;;;;23.92;21.42;;;6.30;99.90;;;;;;4983883;28;20205;-57
2021/01/24 07:51:23;;;;;;;24.60;21.30;;;6.40;99.90;;;;;;4983563;28;20201;-50
2021/01/24 07:53:53;;;;;;;23.25;20.85;;;6.40;99.90;;;;;;4982666;28;20589;-51
2021/01/24 07:56:24;;;;;;;23.40;20.95;;;6.30;99.90;;;;;;4983932;28;20278;-52
2021/01/24 07:58:54;;;;;;;23.25;20.83;;;6.40;99.90;;;;;;4988212;28;20204;-50
2021/01/24 08:01:25;;;;;;;24.70;20.58;;;6.40;99.90;;;;;;4990354;28;20274;-49
2021/01/24 08:03:55;;;;;;;22.48;20.30;;;6.40;99.90;;;;;;4982989;28;20196;-52
2021/01/24 08:06:28;;;;;;;21.88;19.65;;;6.30;99.90;;;;;;4984140;28;20256;-50
2021/01/24 08:08:58;;;;;;;22.50;20.20;;;6.30;99.90;;;;;;4982606;28;20209;-52
2021/01/24 08:11:30;;;;;;;22.08;19.85;;;6.20;99.90;;;;;;4988024;28;20289;-49
2021/01/24 08:14:00;;;;;;;24.58;20.30;;;6.20;99.90;;;;;;4983038;28;20216;-52
2021/01/24 08:16:35;;;;;;;22.08;19.58;;;6.30;99.90;;;;;;4984424;28;20200;-46
2021/01/24 08:19:07;;;;;;;21.10;19.00;;;6.40;99.90;;;;;;4983374;28;20215;-48
2021/01/24 08:21:39;;;;;;;22.13;19.92;;;6.20;99.90;;;;;;4983610;28;20236;-50
2021/01/24 08:24:11;;;;;;;22.02;19.83;;;6.20;99.90;;;;;;4984986;28;20232;-50
2021/01/24 08:26:42;;;;;;;21.60;19.50;;;6.10;99.90;;;;;;4982393;28;20260;-48
2021/01/24 08:29:12;;;;;;;21.40;19.35;;;6.00;99.90;;;;;;4991980;28;20232;-48
2021/01/24 08:31:45;;;;;;;20.75;18.65;;;6.00;99.90;;;;;;4979838;28;20235;-48
2021/01/24 08:34:16;;;;;;;21.42;19.38;;;6.10;99.90;;;;;;4992133;28;20196;-51
2021/01/24 08:36:48;;;;;;;20.77;18.90;;;6.10;99.90;;;;;;4986246;28;21946;-49
2021/01/24 08:39:24;;;;;;;22.45;18.27;;;6.10;99.90;;;;;;4983584;28;20235;-49
2021/01/24 08:41:55;;;;;;;21.00;18.90;;;6.10;99.90;;;;;;4979496;28;20260;-50
2021/01/24 08:44:25;;;;;;;23.08;20.80;;;6.20;99.90;;;;;;4981798;28;20681;-46
2021/01/24 08:47:03;;;;;;;21.45;19.45;;;6.30;99.90;;;;;;4986016;28;20611;-48
2021/01/24 08:49:34;;;;;;;20.77;18.65;;;6.20;99.90;;;;;;4986851;28;20264;-50
2021/01/24 08:52:06;;;;;;;21.00;18.88;;;6.10;99.90;;;;;;4989247;28;20303;-48
2021/01/24 08:54:37;;;;;;;21.80;19.25;;;6.10;99.90;;;;;;4985195;28;20205;-46
2021/01/24 08:57:12;;;;;;;23.15;20.88;;;6.10;99.90;;;;;;4989466;28;20207;-47
2021/01/24 09:00:00;;;;;;;21.83;19.52;;;6.10;99.90;;;;;;4986369;28;20227;-50
2021/01/24 09:02:31;;;;;;;23.95;21.38;;;6.00;99.90;;;;;;4992402;28;20243;-46
2021/01/24 09:05:04;;;;;;;24.67;22.10;;;5.90;99.90;;;;;;4982099;28;20216;-50
2021/01/24 09:07:41;;;;;;;22.48;20.10;;;5.90;99.90;;;;;;4986772;28;20209;-45
2021/01/24 09:10:22;;;;;;;20.63;18.52;;;6.00;99.90;;;;;;4982849;28;20270;-45
2021/01/24 09:12:54;;;;;;;19.67;17.67;;;6.00;99.90;;;;;;4991765;28;20228;-46
2021/01/24 09:15:26;;;;;;;21.02;18.02;;;6.10;99.90;;;;;;4990737;28;20293;-50
2021/01/24 09:17:59;;;;;;;20.25;17.35;;;6.20;99.90;;;;;;4984303;28;20235;-51
2021/01/24 09:20:31;;;;;;;20.48;18.25;;;6.10;99.90;;;;;;4980156;28;20280;-48
2021/01/24 09:23:02;;;;;;;20.10;18.00;;;6.20;99.90;;;;;;4988039;28;20201;-48
2021/01/24 09:25:32;;;;;;;20.33;18.27;;;6.10;99.90;;;;;;4993299;28;20294;-46
2021/01/24 09:28:02;;;;;;;20.02;17.75;;;6.10;99.90;;;;;;4988339;28;20276;-47
2021/01/24 09:30:33;;;;;;;20.52;18.33;;;6.00;99.90;;;;;;4994721;28;20208;-47
2021/01/24 09:33:03;;;;;;;21.90;19.73;;;6.00;99.90;;;;;;4985622;28;20201;-46
2021/01/24 09:35:33;;;;;;;20.48;18.48;;;6.00;99.90;;;;;;4992727;28;20218;-50
2021/01/24 09:38:04;;;;;;;19.20;17.30;;;6.00;99.90;;;;;;4985339;28;21029;-47
2021/01/24 09:40:34;;;;;;;19.65;17.65;;;5.80;99.90;;;;;;4995542;28;20262;-46
2021/01/24 09:43:04;;;;;;;21.23;17.92;;;5.80;99.90;;;;;;4968931;28;20221;-45
2021/01/24 09:45:34;;;;;;;19.40;17.42;;;5.80;99.90;;;;;;4985656;28;20253;-48
2021/01/24 09:48:05;;;;;;;21.13;17.40;;;5.80;99.90;;;;;;4984813;28;20200;-47
2021/01/24 09:50:35;;;;;;;18.38;16.63;;;5.90;99.90;;;;;;4986642;28;20251;-50
2021/01/24 09:53:06;;;;;;;18.10;16.40;;;5.90;99.90;;;;;;4989502;28;20217;-46
2021/01/24 09:55:36;;;;;;;19.90;16.63;;;5.90;99.90;;;;;;4995536;28;20204;-49
2021/01/24 09:58:06;;;;;;;17.80;16.00;;;5.90;99.90;;;;;;4993577;28;20248;-50
2021/01/24 10:00:36;;;;;;;17.60;15.90;;;5.90;99.90;;;;;;4992058;28;20232;-49
2021/01/24 10:03:06;;;;;;;17.08;15.38;;;5.90;99.90;;;;;;4985335;28;20355;-48
2021/01/24 10:05:37;;;;;;;16.25;14.60;;;5.80;99.90;;;;;;4987128;28;20245;-48
2021/01/24 10:08:09;;;;;;;18.10;16.08;;;5.80;99.90;;;;;;4988238;28;20276;-49
2021/01/24 10:10:39;;;;;;;18.88;16.27;;;5.70;99.90;;;;;;4986155;28;20228;-49
2021/01/24 10:13:09;;;;;;;18.40;16.60;;;5.50;99.90;;;;;;4984032;28;20243;-44
2021/01/24 10:15:39;;;;;;;17.75;15.95;;;5.50;99.90;;;;;;4985978;28;20200;-47
2021/01/24 10:18:10;;;;;;;16.80;15.20;;;5.40;99.90;;;;;;4986708;28;20192;-50
2021/01/24 10:20:40;;;;;;;17.58;15.80;;;5.30;99.90;;;;;;4987927;28;20607;-47
2021/01/24 10:23:12;;;;;;;17.20;15.55;;;5.30;99.90;;;;;;4985903;28;20275;-50
2021/01/24 10:25:42;;;;;;;16.10;14.25;;;5.30;99.90;;;;;;4992201;28;20239;-50
2021/01/24 10:28:12;;;;;;;14.60;13.00;;;5.30;99.90;;;;;;4985416;28;20209;-50
2021/01/24 10:30:42;;;;;;;16.42;14.73;;;5.50;99.90;;;;;;4985397;28;20189;-48
2021/01/24 10:33:13;;;;;;;15.82;14.43;;;5.50;99.90;;;;;;4986728;28;20197;-45
2021/01/24 10:35:44;;;;;;;16.13;14.43;;;5.50;99.90;;;;;;4994944;28;20302;-49
2021/01/24 10:38:16;;;;;;;15.13;13.45;;;5.50;99.90;;;;;;4990254;28;20197;-46
2021/01/24 10:40:46;;;;;;;14.82;13.20;;;5.50;99.90;;;;;;4984893;28;20605;-46
2021/01/24 10:43:16;;;;;;;14.93;13.57;;;5.50;99.90;;;;;;4982760;28;20205;-47
2021/01/24 10:45:46;;;;;;;15.73;14.10;;;5.50;99.90;;;;;;4989005;28;20207;-47
2021/01/24 10:48:16;;;;;;;14.82;13.40;;;5.50;99.90;;;;;;4986097;28;20212;-45
2021/01/24 10:50:47;;;;;;;14.98;13.35;;;5.50;99.90;;;;;;4994887;28;20216;-51
2021/01/24 10:53:18;;;;;;;14.60;13.10;;;5.50;99.90;;;;;;4983676;28;20635;-47
2021/01/24 10:55:48;;;;;;;15.13;13.52;;;5.50;99.90;;;;;;4986030;28;20637;-48
2021/01/24 10:58:21;;;;;;;15.05;13.55;;;5.50;99.90;;;;;;4988470;28;20200;-46
2021/01/24 11:00:51;;;;;;;14.77;13.38;;;5.40;99.90;;;;;;4985340;28;20644;-46
2021/01/24 11:03:21;;;;;;;14.68;13.07;;;5.40;99.90;;;;;;4986830;28;20208;-45
2021/01/24 11:05:52;;;;;;;15.20;13.77;;;5.30;99.90;;;;;;4992390;28;20388;-47
2021/01/24 11:08:24;;;;;;;15.82;14.25;;;5.30;99.90;;;;;;4985069;28;20259;-44
2021/01/24 11:10:55;;;;;;;16.15;14.10;;;5.30;99.90;;;;;;4980968;28;20213;-47
2021/01/24 11:13:25;;;;;;;14.65;13.15;;;5.20;99.90;;;;;;4984941;28;20238;-45
2021/01/24 11:15:55;;;;;;;17.52;14.27;;;5.30;99.90;;;;;;4988182;28;20200;-46
2021/01/24 11:18:25;;;;;;;14.80;13.35;;;5.30;99.90;;;;;;4988096;28;20209;-46
2021/01/24 11:20:55;;;;;;;15.90;14.15;;;5.30;99.90;;;;;;4980931;28;20232;-48
2021/01/24 11:23:27;;;;;;;16.77;14.07;;;5.40;99.90;;;;;;4991733;28;20216;-47
2021/01/24 11:25:57;;;;;;;14.50;13.00;;;5.40;99.90;;;;;;4986622;28;20718;-44
2021/01/24 11:28:27;;;;;;;15.43;13.93;;;5.50;99.90;;;;;;4984685;28;20288;-48
2021/01/24 11:30:57;;;;;;;14.52;13.02;;;5.50;99.90;;;;;;4983661;28;20220;-49
2021/01/24 11:33:27;;;;;;;13.40;12.00;;;5.40;99.90;;;;;;4983213;28;20204;-50
2021/01/24 11:35:57;;;;;;;13.57;12.15;;;5.50;99.90;;;;;;4985056;28;20269;-46
2021/01/24 11:38:28;;;;;;;14.05;12.40;;;5.50;99.90;;;;;;4985628;28;20259;-44
2021/01/24 11:40:58;;;;;;;15.30;13.38;;;5.50;99.90;;;;;;4995645;28;20204;-44
2021/01/24 11:43:29;;;;;;;14.27;12.82;;;5.40;99.90;;;;;;4990373;28;20229;-46
2021/01/24 11:45:59;;;;;;;14.75;13.10;;;5.50;99.90;;;;;;4995171;28;20303;-49
2021/01/24 11:48:30;;;;;;;13.63;12.32;;;5.50;99.90;;;;;;4983723;28;20208;-46
2021/01/24 11:51:00;;;;;;;13.98;12.68;;;5.50;99.90;;;;;;4981706;28;20213;-44
2021/01/24 11:53:31;;;;;;;14.23;12.52;;;5.40;99.90;;;;;;4983815;28;20248;-43
2021/01/24 11:56:01;;;;;;;13.27;11.98;;;5.40;99.90;;;;;;4982053;28;20204;-44
2021/01/24 11:58:31;;;;;;;15.02;12.48;;;5.50;99.90;;;;;;4994889;28;20519;-44
2021/01/24 12:01:01;;;;;;;16.67;12.52;;;5.50;99.90;;;;;;4983811;28;20232;-46
2021/01/24 12:03:32;;;;;;;13.02;11.73;;;5.50;99.90;;;;;;4983063;28;20288;-43
2021/01/24 12:06:02;;;;;;;12.90;11.13;;;5.50;99.90;;;;;;4982463;28;20235;-45
2021/01/24 12:08:33;;;;;;;15.88;12.80;;;5.40;99.90;;;;;;4983731;28;20631;-44
2021/01/24 12:11:04;;;;;;;13.40;11.35;;;5.50;99.90;;;;;;4984735;28;20220;-46
2021/01/24 12:13:34;;;;;;;12.50;11.15;;;5.50;99.90;;;;;;4992820;28;20208;-47
2021/01/24 12:16:04;;;;;;;12.43;11.18;;;5.50;99.90;;;;;;4984517;28;20267;-44
2021/01/24 12:18:34;;;;;;;12.38;11.27;;;5.50;99.90;;;;;;4986534;28;20216;-43
2021/01/24 12:21:04;;;;;;;16.58;11.70;;;5.50;99.90;;;;;;4973776;28;20213;-46
2021/01/24 12:23:35;;;;;;;13.60;12.18;;;5.40;99.90;;;;;;4983377;28;20215;-46
2021/01/24 12:26:06;;;;;;;12.65;11.35;;;5.30;99.90;;;;;;4983156;28;20216;-43
2021/01/24 12:28:36;;;;;;;12.52;11.23;;;5.30;99.90;;;;;;4981378;28;20252;-45
2021/01/24 12:31:06;;;;;;;12.98;10.82;;;5.30;99.90;;;;;;4985979;28;20220;-48
2021/01/24 12:33:36;;;;;;;14.00;10.13;;;5.30;99.90;;;;;;4982697;28;20635;-44
2021/01/24 12:36:07;;;;;;;11.55;10.45;;;5.30;99.90;;;;;;4988611;28;20280;-47
2021/01/24 12:38:38;;;;;;;11.85;10.73;;;5.30;99.90;;;;;;4984544;28;20204;-46
2021/01/24 12:41:08;;;;;;;12.02;10.82;;;5.40;99.90;;;;;;4980037;28;20232;-49
2021/01/24 12:43:38;;;;;;;12.05;10.43;;;5.40;99.90;;;;;;4973555;28;20275;-50
2021/01/24 12:46:08;;;;;;;11.00;9.90;;;5.50;99.90;;;;;;4985364;28;20228;-44
2021/01/24 12:48:39;;;;;;;11.80;10.55;;;5.50;99.90;;;;;;4991185;28;20243;-48
2021/01/24 12:51:10;;;;;;;11.55;10.00;;;5.40;99.90;;;;;;4983457;28;20535;-47
2021/01/24 12:53:50;;;;;;;11.25;9.82;;;5.50;99.90;;;;;;4981959;28;20208;-45
2021/01/24 12:56:20;;;;;;;12.23;10.93;;;5.50;99.90;;;;;;4985283;28;20208;-47
2021/01/24 12:58:50;;;;;;;11.25;9.35;;;5.50;99.90;;;;;;4988418;28;20208;-49
2021/01/24 13:01:20;;;;;;;11.10;9.90;;;5.60;99.90;;;;;;4986033;28;20218;-48
2021/01/24 13:03:51;;;;;;;11.02;9.77;;;5.50;99.90;;;;;;4991520;28;20208;-47
2021/01/24 13:06:20;;;;;;;11.02;10.13;;;5.50;99.90;;;;;;4984428;28;20270;-44